sensor_id;sensor_type;location;lat;lon;timestamp;P1;durP1;ratioP1;P2;durP2;ratioP2
179;SDS011;78;48.788;9.010;2023-01-29T00:01:07;29.83;;;10.97;;
179;SDS011;78;48.788;9.010;2023-01-29T00:03:33;27.27;;;10.07;;
179;SDS011;78;48.788;9.010;2023-01-29T00:05:59;30.83;;;11.30;;
179;SDS011;78;48.788;9.010;2023-01-29T00:08:28;29.77;;;11.87;;
179;SDS011;78;48.788;9.010;2023-01-29T00:10:59;31.90;;;11.17;;
179;SDS011;78;48.788;9.010;2023-01-29T00:13:26;31.07;;;11.40;;
179;SDS011;78;48.788;9.010;2023-01-29T00:15:52;35.67;;;12.10;;
179;SDS011;78;48.788;9.010;2023-01-29T00:18:19;31.17;;;11.87;;
179;SDS011;78;48.788;9.010;2023-01-29T00:20:45;33.43;;;11.40;;
179;SDS011;78;48.788;9.010;2023-01-29T00:23:11;27.13;;;10.47;;
179;SDS011;78;48.788;9.010;2023-01-29T00:25:37;28.37;;;10.80;;
179;SDS011;78;48.788;9.010;2023-01-29T00:28:03;28.17;;;10.73;;
179;SDS011;78;48.788;9.010;2023-01-29T00:30:29;30.30;;;11.47;;
179;SDS011;78;48.788;9.010;2023-01-29T00:32:56;30.27;;;11.07;;
179;SDS011;78;48.788;9.010;2023-01-29T00:35:22;30.40;;;10.67;;
179;SDS011;78;48.788;9.010;2023-01-29T00:37:48;29.83;;;11.20;;
179;SDS011;78;48.788;9.010;2023-01-29T00:40:14;30.47;;;11.00;;
179;SDS011;78;48.788;9.010;2023-01-29T00:42:40;30.30;;;11.63;;
179;SDS011;78;48.788;9.010;2023-01-29T00:45:24;30.37;;;10.93;;
179;SDS011;78;48.788;9.010;2023-01-29T00:47:50;30.43;;;11.13;;
179;SDS011;78;48.788;9.010;2023-01-29T00:50:16;30.50;;;11.00;;
179;SDS011;78;48.788;9.010;2023-01-29T00:52:42;29.37;;;11.40;;
179;SDS011;78;48.788;9.010;2023-01-29T00:55:08;29.83;;;11.10;;
179;SDS011;78;48.788;9.010;2023-01-29T00:57:35;30.17;;;11.03;;
179;SDS011;78;48.788;9.010;2023-01-29T01:00:03;30.80;;;11.33;;
179;SDS011;78;48.788;9.010;2023-01-29T01:02:29;29.27;;;10.30;;
179;SDS011;78;48.788;9.010;2023-01-29T01:05:14;29.17;;;10.73;;
179;SDS011;78;48.788;9.010;2023-01-29T01:07:45;30.07;;;10.73;;
179;SDS011;78;48.788;9.010;2023-01-29T01:10:12;29.50;;;10.60;;
179;SDS011;78;48.788;9.010;2023-01-29T01:12:45;28.27;;;10.07;;
179;SDS011;78;48.788;9.010;2023-01-29T01:15:11;29.57;;;10.00;;
179;SDS011;78;48.788;9.010;2023-01-29T01:17:38;29.17;;;10.70;;
179;SDS011;78;48.788;9.010;2023-01-29T01:20:04;30.43;;;10.10;;
179;SDS011;78;48.788;9.010;2023-01-29T01:22:30;26.60;;;10.13;;
179;SDS011;78;48.788;9.010;2023-01-29T01:24:56;28.43;;;10.17;;
179;SDS011;78;48.788;9.010;2023-01-29T01:27:22;29.50;;;10.30;;
179;SDS011;78;48.788;9.010;2023-01-29T01:29:49;31.00;;;10.03;;
179;SDS011;78;48.788;9.010;2023-01-29T01:32:16;30.97;;;10.10;;
179;SDS011;78;48.788;9.010;2023-01-29T01:34:43;27.07;;;9.90;;
179;SDS011;78;48.788;9.010;2023-01-29T01:37:09;28.07;;;10.73;;
179;SDS011;78;48.788;9.010;2023-01-29T01:39:36;27.63;;;10.77;;
179;SDS011;78;48.788;9.010;2023-01-29T01:42:02;29.93;;;10.40;;
179;SDS011;78;48.788;9.010;2023-01-29T01:47:13;30.33;;;10.90;;
179;SDS011;78;48.788;9.010;2023-01-29T01:49:40;30.80;;;10.80;;
179;SDS011;78;48.788;9.010;2023-01-29T01:52:07;29.27;;;11.23;;
179;SDS011;78;48.788;9.010;2023-01-29T01:54:33;28.00;;;9.70;;
179;SDS011;78;48.788;9.010;2023-01-29T01:57:01;29.07;;;10.60;;
179;SDS011;78;48.788;9.010;2023-01-29T01:59:35;26.93;;;10.37;;
179;SDS011;78;48.788;9.010;2023-01-29T02:02:03;28.03;;;10.67;;
179;SDS011;78;48.788;9.010;2023-01-29T02:04:50;31.60;;;10.87;;
179;SDS011;78;48.788;9.010;2023-01-29T02:07:39;29.70;;;11.13;;
179;SDS011;78;48.788;9.010;2023-01-29T02:10:25;42.23;;;10.63;;
179;SDS011;78;48.788;9.010;2023-01-29T02:12:52;30.17;;;11.07;;
179;SDS011;78;48.788;9.010;2023-01-29T02:15:18;31.00;;;11.13;;
179;SDS011;78;48.788;9.010;2023-01-29T02:17:45;30.90;;;10.77;;
179;SDS011;78;48.788;9.010;2023-01-29T02:28:41;31.50;;;11.40;;
179;SDS011;78;48.788;9.010;2023-01-29T02:31:11;29.77;;;11.30;;
179;SDS011;78;48.788;9.010;2023-01-29T02:36:13;35.47;;;11.27;;
179;SDS011;78;48.788;9.010;2023-01-29T02:43:51;29.10;;;10.87;;
179;SDS011;78;48.788;9.010;2023-01-29T02:46:22;33.30;;;11.80;;
179;SDS011;78;48.788;9.010;2023-01-29T02:48:57;30.83;;;12.00;;
179;SDS011;78;48.788;9.010;2023-01-29T02:51:38;28.93;;;10.70;;
179;SDS011;78;48.788;9.010;2023-01-29T02:54:17;32.60;;;11.20;;
179;SDS011;78;48.788;9.010;2023-01-29T02:59:44;30.20;;;10.20;;
179;SDS011;78;48.788;9.010;2023-01-29T03:02:13;32.53;;;11.50;;
179;SDS011;78;48.788;9.010;2023-01-29T03:04:42;28.70;;;11.10;;
179;SDS011;78;48.788;9.010;2023-01-29T03:07:13;31.07;;;11.67;;
179;SDS011;78;48.788;9.010;2023-01-29T03:10:01;28.97;;;10.97;;
179;SDS011;78;48.788;9.010;2023-01-29T03:12:28;34.23;;;11.50;;
179;SDS011;78;48.788;9.010;2023-01-29T03:15:02;29.10;;;10.70;;
179;SDS011;78;48.788;9.010;2023-01-29T03:17:38;28.27;;;10.70;;
179;SDS011;78;48.788;9.010;2023-01-29T03:20:06;30.00;;;10.80;;
179;SDS011;78;48.788;9.010;2023-01-29T03:22:33;30.03;;;11.67;;
179;SDS011;78;48.788;9.010;2023-01-29T03:25:02;28.00;;;10.53;;
179;SDS011;78;48.788;9.010;2023-01-29T03:27:48;29.90;;;10.50;;
179;SDS011;78;48.788;9.010;2023-01-29T03:30:37;27.80;;;10.17;;
179;SDS011;78;48.788;9.010;2023-01-29T03:33:25;30.77;;;11.37;;
179;SDS011;78;48.788;9.010;2023-01-29T03:35:55;28.90;;;11.93;;
179;SDS011;78;48.788;9.010;2023-01-29T03:38:25;30.43;;;10.80;;
179;SDS011;78;48.788;9.010;2023-01-29T03:41:39;29.00;;;11.23;;
179;SDS011;78;48.788;9.010;2023-01-29T03:51:22;29.03;;;11.13;;
179;SDS011;78;48.788;9.010;2023-01-29T03:53:55;30.20;;;11.27;;
179;SDS011;78;48.788;9.010;2023-01-29T03:59:15;28.83;;;10.17;;
179;SDS011;78;48.788;9.010;2023-01-29T04:01:45;29.33;;;11.03;;
179;SDS011;78;48.788;9.010;2023-01-29T04:06:41;30.00;;;10.60;;
179;SDS011;78;48.788;9.010;2023-01-29T04:09:13;31.83;;;11.33;;
179;SDS011;78;48.788;9.010;2023-01-29T04:11:42;30.50;;;11.57;;
179;SDS011;78;48.788;9.010;2023-01-29T04:14:09;31.33;;;11.20;;
179;SDS011;78;48.788;9.010;2023-01-29T04:16:38;32.30;;;11.60;;
179;SDS011;78;48.788;9.010;2023-01-29T04:19:04;31.00;;;12.10;;
179;SDS011;78;48.788;9.010;2023-01-29T04:21:31;31.07;;;11.43;;
179;SDS011;78;48.788;9.010;2023-01-29T04:23:57;28.80;;;11.00;;
179;SDS011;78;48.788;9.010;2023-01-29T04:31:27;31.67;;;11.03;;
179;SDS011;78;48.788;9.010;2023-01-29T04:38:57;32.37;;;12.50;;
179;SDS011;78;48.788;9.010;2023-01-29T04:49:12;33.00;;;12.00;;
179;SDS011;78;48.788;9.010;2023-01-29T04:54:15;30.40;;;11.60;;
179;SDS011;78;48.788;9.010;2023-01-29T04:59:14;34.93;;;13.23;;
179;SDS011;78;48.788;9.010;2023-01-29T05:01:42;36.80;;;13.40;;
179;SDS011;78;48.788;9.010;2023-01-29T05:04:09;30.60;;;11.50;;
179;SDS011;78;48.788;9.010;2023-01-29T05:06:36;35.27;;;13.53;;
179;SDS011;78;48.788;9.010;2023-01-29T05:09:03;35.67;;;12.67;;
179;SDS011;78;48.788;9.010;2023-01-29T05:11:32;33.17;;;12.23;;
179;SDS011;78;48.788;9.010;2023-01-29T05:14:01;31.87;;;12.23;;
179;SDS011;78;48.788;9.010;2023-01-29T05:16:31;38.07;;;12.27;;
179;SDS011;78;48.788;9.010;2023-01-29T05:19:07;33.80;;;12.77;;
179;SDS011;78;48.788;9.010;2023-01-29T05:21:34;35.03;;;12.80;;
179;SDS011;78;48.788;9.010;2023-01-29T05:24:34;32.53;;;11.80;;
179;SDS011;78;48.788;9.010;2023-01-29T05:26:53;32.07;;;12.83;;
179;SDS011;78;48.788;9.010;2023-01-29T05:29:39;33.77;;;12.30;;
179;SDS011;78;48.788;9.010;2023-01-29T05:32:08;31.20;;;11.47;;
179;SDS011;78;48.788;9.010;2023-01-29T05:34:34;34.80;;;12.20;;
179;SDS011;78;48.788;9.010;2023-01-29T05:37:00;29.83;;;11.67;;
179;SDS011;78;48.788;9.010;2023-01-29T05:39:26;31.93;;;11.40;;
179;SDS011;78;48.788;9.010;2023-01-29T05:41:53;34.60;;;12.53;;
179;SDS011;78;48.788;9.010;2023-01-29T05:44:19;35.40;;;13.50;;
179;SDS011;78;48.788;9.010;2023-01-29T05:46:45;32.87;;;12.27;;
179;SDS011;78;48.788;9.010;2023-01-29T05:49:11;35.43;;;12.80;;
179;SDS011;78;48.788;9.010;2023-01-29T05:51:38;33.23;;;11.60;;
179;SDS011;78;48.788;9.010;2023-01-29T05:54:03;42.03;;;14.63;;
179;SDS011;78;48.788;9.010;2023-01-29T05:56:30;35.30;;;13.10;;
179;SDS011;78;48.788;9.010;2023-01-29T05:58:56;32.10;;;12.57;;
179;SDS011;78;48.788;9.010;2023-01-29T06:01:23;33.60;;;12.37;;
179;SDS011;78;48.788;9.010;2023-01-29T06:03:50;34.13;;;13.70;;
179;SDS011;78;48.788;9.010;2023-01-29T06:06:17;30.50;;;11.80;;
179;SDS011;78;48.788;9.010;2023-01-29T06:08:43;29.80;;;11.20;;
179;SDS011;78;48.788;9.010;2023-01-29T06:11:10;34.23;;;13.00;;
179;SDS011;78;48.788;9.010;2023-01-29T06:13:37;34.27;;;12.90;;
179;SDS011;78;48.788;9.010;2023-01-29T06:16:04;38.00;;;13.13;;
179;SDS011;78;48.788;9.010;2023-01-29T06:18:30;33.67;;;12.20;;
179;SDS011;78;48.788;9.010;2023-01-29T06:21:00;33.60;;;12.80;;
179;SDS011;78;48.788;9.010;2023-01-29T06:23:26;36.53;;;13.60;;
179;SDS011;78;48.788;9.010;2023-01-29T06:25:53;33.20;;;12.63;;
179;SDS011;78;48.788;9.010;2023-01-29T06:28:19;32.47;;;12.37;;
179;SDS011;78;48.788;9.010;2023-01-29T06:30:45;38.07;;;13.20;;
179;SDS011;78;48.788;9.010;2023-01-29T06:33:11;34.07;;;11.80;;
179;SDS011;78;48.788;9.010;2023-01-29T06:35:37;32.30;;;12.10;;
179;SDS011;78;48.788;9.010;2023-01-29T06:38:03;33.77;;;11.80;;
179;SDS011;78;48.788;9.010;2023-01-29T06:40:29;35.10;;;12.73;;
179;SDS011;78;48.788;9.010;2023-01-29T06:42:56;30.53;;;11.67;;
179;SDS011;78;48.788;9.010;2023-01-29T06:45:22;30.53;;;11.97;;
179;SDS011;78;48.788;9.010;2023-01-29T06:47:48;30.23;;;11.50;;
179;SDS011;78;48.788;9.010;2023-01-29T06:50:14;31.00;;;11.47;;
179;SDS011;78;48.788;9.010;2023-01-29T06:52:40;31.87;;;11.80;;
179;SDS011;78;48.788;9.010;2023-01-29T06:55:07;32.53;;;11.50;;
179;SDS011;78;48.788;9.010;2023-01-29T06:57:33;32.10;;;11.47;;
179;SDS011;78;48.788;9.010;2023-01-29T06:59:59;34.97;;;12.53;;
179;SDS011;78;48.788;9.010;2023-01-29T07:02:26;28.80;;;10.80;;
179;SDS011;78;48.788;9.010;2023-01-29T07:04:52;31.07;;;11.30;;
179;SDS011;78;48.788;9.010;2023-01-29T07:07:18;32.77;;;11.70;;
179;SDS011;78;48.788;9.010;2023-01-29T07:09:45;31.30;;;11.63;;
179;SDS011;78;48.788;9.010;2023-01-29T07:12:11;32.17;;;11.77;;
179;SDS011;78;48.788;9.010;2023-01-29T07:14:37;33.80;;;12.43;;
179;SDS011;78;48.788;9.010;2023-01-29T07:17:04;35.57;;;13.40;;
179;SDS011;78;48.788;9.010;2023-01-29T07:19:30;34.33;;;13.00;;
179;SDS011;78;48.788;9.010;2023-01-29T07:21:57;30.30;;;11.37;;
179;SDS011;78;48.788;9.010;2023-01-29T07:24:26;34.70;;;12.40;;
179;SDS011;78;48.788;9.010;2023-01-29T07:26:53;30.67;;;11.60;;
179;SDS011;78;48.788;9.010;2023-01-29T07:29:19;35.10;;;13.10;;
179;SDS011;78;48.788;9.010;2023-01-29T07:31:45;33.37;;;12.23;;
179;SDS011;78;48.788;9.010;2023-01-29T07:34:11;31.47;;;11.73;;
179;SDS011;78;48.788;9.010;2023-01-29T07:36:37;31.33;;;11.90;;
179;SDS011;78;48.788;9.010;2023-01-29T07:39:03;33.60;;;12.70;;
179;SDS011;78;48.788;9.010;2023-01-29T07:41:30;32.67;;;12.30;;
179;SDS011;78;48.788;9.010;2023-01-29T07:43:56;34.93;;;12.40;;
179;SDS011;78;48.788;9.010;2023-01-29T07:46:22;31.50;;;12.13;;
179;SDS011;78;48.788;9.010;2023-01-29T07:48:48;34.97;;;13.50;;
179;SDS011;78;48.788;9.010;2023-01-29T07:51:14;30.30;;;11.70;;
179;SDS011;78;48.788;9.010;2023-01-29T07:53:42;31.83;;;12.30;;
179;SDS011;78;48.788;9.010;2023-01-29T07:56:09;32.43;;;12.43;;
179;SDS011;78;48.788;9.010;2023-01-29T07:58:35;32.73;;;12.10;;
179;SDS011;78;48.788;9.010;2023-01-29T08:01:05;34.90;;;12.93;;
179;SDS011;78;48.788;9.010;2023-01-29T08:03:32;37.03;;;12.47;;
179;SDS011;78;48.788;9.010;2023-01-29T08:05:58;33.43;;;12.43;;
179;SDS011;78;48.788;9.010;2023-01-29T08:08:24;36.33;;;13.47;;
179;SDS011;78;48.788;9.010;2023-01-29T08:10:50;35.17;;;13.27;;
179;SDS011;78;48.788;9.010;2023-01-29T08:13:16;36.13;;;13.90;;
179;SDS011;78;48.788;9.010;2023-01-29T08:15:43;34.37;;;12.20;;
179;SDS011;78;48.788;9.010;2023-01-29T08:18:09;34.83;;;12.90;;
179;SDS011;78;48.788;9.010;2023-01-29T08:39:16;34.43;;;13.30;;
179;SDS011;78;48.788;9.010;2023-01-29T08:41:42;35.77;;;13.73;;
179;SDS011;78;48.788;9.010;2023-01-29T08:44:09;38.13;;;14.17;;
179;SDS011;78;48.788;9.010;2023-01-29T08:46:35;34.87;;;13.37;;
179;SDS011;78;48.788;9.010;2023-01-29T08:49:02;34.67;;;13.93;;
179;SDS011;78;48.788;9.010;2023-01-29T08:51:29;35.40;;;13.77;;
179;SDS011;78;48.788;9.010;2023-01-29T08:53:54;34.60;;;13.77;;
179;SDS011;78;48.788;9.010;2023-01-29T08:56:21;43.03;;;15.30;;
179;SDS011;78;48.788;9.010;2023-01-29T08:58:47;32.60;;;13.20;;
179;SDS011;78;48.788;9.010;2023-01-29T09:01:14;36.50;;;13.50;;
179;SDS011;78;48.788;9.010;2023-01-29T09:03:40;34.73;;;14.07;;
179;SDS011;78;48.788;9.010;2023-01-29T09:06:09;33.50;;;13.27;;
179;SDS011;78;48.788;9.010;2023-01-29T09:08:35;34.00;;;13.03;;
179;SDS011;78;48.788;9.010;2023-01-29T09:11:02;35.20;;;14.80;;
179;SDS011;78;48.788;9.010;2023-01-29T09:13:28;39.23;;;16.00;;
179;SDS011;78;48.788;9.010;2023-01-29T09:15:57;38.23;;;15.40;;
179;SDS011;78;48.788;9.010;2023-01-29T09:18:24;38.60;;;15.30;;
179;SDS011;78;48.788;9.010;2023-01-29T09:20:50;40.27;;;14.80;;
179;SDS011;78;48.788;9.010;2023-01-29T09:23:17;34.23;;;14.07;;
179;SDS011;78;48.788;9.010;2023-01-29T09:25:45;38.70;;;14.27;;
179;SDS011;78;48.788;9.010;2023-01-29T09:28:11;37.57;;;15.43;;
179;SDS011;78;48.788;9.010;2023-01-29T09:30:37;42.40;;;17.10;;
179;SDS011;78;48.788;9.010;2023-01-29T09:33:04;37.10;;;15.10;;
179;SDS011;78;48.788;9.010;2023-01-29T09:35:30;40.10;;;16.43;;
179;SDS011;78;48.788;9.010;2023-01-29T09:37:57;34.90;;;15.07;;
179;SDS011;78;48.788;9.010;2023-01-29T09:42:53;42.53;;;18.03;;
179;SDS011;78;48.788;9.010;2023-01-29T09:45:22;39.60;;;16.30;;
179;SDS011;78;48.788;9.010;2023-01-29T09:47:49;39.63;;;16.93;;
179;SDS011;78;48.788;9.010;2023-01-29T09:50:21;38.50;;;16.90;;
179;SDS011;78;48.788;9.010;2023-01-29T09:52:49;36.13;;;15.27;;
179;SDS011;78;48.788;9.010;2023-01-29T09:55:21;34.97;;;13.90;;
179;SDS011;78;48.788;9.010;2023-01-29T09:57:49;34.60;;;14.93;;
179;SDS011;78;48.788;9.010;2023-01-29T10:00:34;36.80;;;14.73;;
179;SDS011;78;48.788;9.010;2023-01-29T10:10:49;35.03;;;14.30;;
179;SDS011;78;48.788;9.010;2023-01-29T10:13:28;34.30;;;14.27;;
179;SDS011;78;48.788;9.010;2023-01-29T10:16:07;33.77;;;14.40;;
179;SDS011;78;48.788;9.010;2023-01-29T10:18:47;37.33;;;14.57;;
179;SDS011;78;48.788;9.010;2023-01-29T10:26:52;35.40;;;13.83;;
179;SDS011;78;48.788;9.010;2023-01-29T10:29:20;34.43;;;13.77;;
179;SDS011;78;48.788;9.010;2023-01-29T10:31:48;33.93;;;14.63;;
179;SDS011;78;48.788;9.010;2023-01-29T10:36:54;37.57;;;15.73;;
179;SDS011;78;48.788;9.010;2023-01-29T10:39:24;37.90;;;15.50;;
179;SDS011;78;48.788;9.010;2023-01-29T10:44:56;37.43;;;13.70;;
179;SDS011;78;48.788;9.010;2023-01-29T10:52:33;34.00;;;14.23;;
179;SDS011;78;48.788;9.010;2023-01-29T10:55:13;32.80;;;14.00;;
179;SDS011;78;48.788;9.010;2023-01-29T11:02:42;32.00;;;13.27;;
179;SDS011;78;48.788;9.010;2023-01-29T11:05:23;33.47;;;13.97;;
179;SDS011;78;48.788;9.010;2023-01-29T11:07:59;34.90;;;14.47;;
179;SDS011;78;48.788;9.010;2023-01-29T11:10:26;33.73;;;13.63;;
179;SDS011;78;48.788;9.010;2023-01-29T11:12:53;35.77;;;14.67;;
179;SDS011;78;48.788;9.010;2023-01-29T11:15:23;38.30;;;15.77;;
179;SDS011;78;48.788;9.010;2023-01-29T11:18:01;34.80;;;14.70;;
179;SDS011;78;48.788;9.010;2023-01-29T11:20:27;34.57;;;14.30;;
179;SDS011;78;48.788;9.010;2023-01-29T11:22:54;35.90;;;14.50;;
179;SDS011;78;48.788;9.010;2023-01-29T11:25:20;37.20;;;15.20;;
179;SDS011;78;48.788;9.010;2023-01-29T11:27:48;38.93;;;15.53;;
179;SDS011;78;48.788;9.010;2023-01-29T11:30:16;35.10;;;15.27;;
179;SDS011;78;48.788;9.010;2023-01-29T11:32:44;34.93;;;14.87;;
179;SDS011;78;48.788;9.010;2023-01-29T11:37:44;36.40;;;15.20;;
179;SDS011;78;48.788;9.010;2023-01-29T11:42:43;35.87;;;14.60;;
179;SDS011;78;48.788;9.010;2023-01-29T11:45:23;38.37;;;16.07;;
179;SDS011;78;48.788;9.010;2023-01-29T11:47:51;37.07;;;15.83;;
179;SDS011;78;48.788;9.010;2023-01-29T11:50:22;39.33;;;17.17;;
179;SDS011;78;48.788;9.010;2023-01-29T11:52:49;40.10;;;15.80;;
179;SDS011;78;48.788;9.010;2023-01-29T11:57:51;36.50;;;15.50;;
179;SDS011;78;48.788;9.010;2023-01-29T12:00:21;35.87;;;15.43;;
179;SDS011;78;48.788;9.010;2023-01-29T12:05:24;53.73;;;23.17;;
179;SDS011;78;48.788;9.010;2023-01-29T12:08:00;37.00;;;15.67;;
179;SDS011;78;48.788;9.010;2023-01-29T12:10:34;41.87;;;15.13;;
179;SDS011;78;48.788;9.010;2023-01-29T12:13:05;38.37;;;15.40;;
179;SDS011;78;48.788;9.010;2023-01-29T12:15:31;39.50;;;15.83;;
179;SDS011;78;48.788;9.010;2023-01-29T12:20:26;38.23;;;16.60;;
179;SDS011;78;48.788;9.010;2023-01-29T12:23:02;36.77;;;15.20;;
179;SDS011;78;48.788;9.010;2023-01-29T12:28:13;35.70;;;15.23;;
179;SDS011;78;48.788;9.010;2023-01-29T12:33:36;38.40;;;16.83;;
179;SDS011;78;48.788;9.010;2023-01-29T12:36:08;40.00;;;16.83;;
179;SDS011;78;48.788;9.010;2023-01-29T12:38:35;38.17;;;16.80;;
179;SDS011;78;48.788;9.010;2023-01-29T12:41:06;40.70;;;16.93;;
179;SDS011;78;48.788;9.010;2023-01-29T12:43:43;41.20;;;16.83;;
179;SDS011;78;48.788;9.010;2023-01-29T12:46:15;46.20;;;17.30;;
179;SDS011;78;48.788;9.010;2023-01-29T12:48:43;42.73;;;18.10;;
179;SDS011;78;48.788;9.010;2023-01-29T12:51:10;40.17;;;16.80;;
179;SDS011;78;48.788;9.010;2023-01-29T12:53:55;38.97;;;17.40;;
179;SDS011;78;48.788;9.010;2023-01-29T12:56:26;41.57;;;17.97;;
179;SDS011;78;48.788;9.010;2023-01-29T12:58:53;41.87;;;18.10;;
179;SDS011;78;48.788;9.010;2023-01-29T13:01:32;59.13;;;25.40;;
179;SDS011;78;48.788;9.010;2023-01-29T13:04:02;60.33;;;24.37;;
179;SDS011;78;48.788;9.010;2023-01-29T13:06:34;44.90;;;18.83;;
179;SDS011;78;48.788;9.010;2023-01-29T13:09:05;37.17;;;16.23;;
179;SDS011;78;48.788;9.010;2023-01-29T13:11:33;38.93;;;17.57;;
179;SDS011;78;48.788;9.010;2023-01-29T13:14:01;38.60;;;16.30;;
179;SDS011;78;48.788;9.010;2023-01-29T13:16:32;44.40;;;17.80;;
179;SDS011;78;48.788;9.010;2023-01-29T13:19:05;38.27;;;16.17;;
179;SDS011;78;48.788;9.010;2023-01-29T13:21:39;40.87;;;17.20;;
179;SDS011;78;48.788;9.010;2023-01-29T13:24:14;69.40;;;31.33;;
179;SDS011;78;48.788;9.010;2023-01-29T13:26:44;38.10;;;16.60;;
179;SDS011;78;48.788;9.010;2023-01-29T13:29:24;39.13;;;16.70;;
179;SDS011;78;48.788;9.010;2023-01-29T13:31:51;39.00;;;17.30;;
179;SDS011;78;48.788;9.010;2023-01-29T13:34:25;40.57;;;17.90;;
179;SDS011;78;48.788;9.010;2023-01-29T13:36:56;43.30;;;18.40;;
179;SDS011;78;48.788;9.010;2023-01-29T13:41:51;41.03;;;17.17;;
179;SDS011;78;48.788;9.010;2023-01-29T13:44:19;40.73;;;17.30;;
179;SDS011;78;48.788;9.010;2023-01-29T13:46:51;41.97;;;17.63;;
179;SDS011;78;48.788;9.010;2023-01-29T13:49:23;41.77;;;16.27;;
179;SDS011;78;48.788;9.010;2023-01-29T13:51:51;40.90;;;15.67;;
179;SDS011;78;48.788;9.010;2023-01-29T13:54:19;43.50;;;18.00;;
179;SDS011;78;48.788;9.010;2023-01-29T13:56:55;41.10;;;17.23;;
179;SDS011;78;48.788;9.010;2023-01-29T14:04:45;44.20;;;17.73;;
179;SDS011;78;48.788;9.010;2023-01-29T14:10:00;41.03;;;16.97;;
179;SDS011;78;48.788;9.010;2023-01-29T14:12:31;39.77;;;16.63;;
179;SDS011;78;48.788;9.010;2023-01-29T14:15:00;41.13;;;16.90;;
179;SDS011;78;48.788;9.010;2023-01-29T14:17:28;51.90;;;20.03;;
179;SDS011;78;48.788;9.010;2023-01-29T14:19:58;36.57;;;15.30;;
179;SDS011;78;48.788;9.010;2023-01-29T14:22:26;35.97;;;15.23;;
179;SDS011;78;48.788;9.010;2023-01-29T14:24:54;38.07;;;15.17;;
179;SDS011;78;48.788;9.010;2023-01-29T14:27:21;37.83;;;15.50;;
179;SDS011;78;48.788;9.010;2023-01-29T14:29:49;42.67;;;19.30;;
179;SDS011;78;48.788;9.010;2023-01-29T14:32:21;38.07;;;15.80;;
179;SDS011;78;48.788;9.010;2023-01-29T14:34:56;38.50;;;16.50;;
179;SDS011;78;48.788;9.010;2023-01-29T14:37:34;46.43;;;20.20;;
179;SDS011;78;48.788;9.010;2023-01-29T14:40:12;43.27;;;17.00;;
179;SDS011;78;48.788;9.010;2023-01-29T14:42:57;39.57;;;17.17;;
179;SDS011;78;48.788;9.010;2023-01-29T14:55:39;38.77;;;16.20;;
179;SDS011;78;48.788;9.010;2023-01-29T14:58:09;39.83;;;16.43;;
179;SDS011;78;48.788;9.010;2023-01-29T15:00:36;40.93;;;16.87;;
179;SDS011;78;48.788;9.010;2023-01-29T15:03:04;39.97;;;16.20;;
179;SDS011;78;48.788;9.010;2023-01-29T15:05:36;43.40;;;18.23;;
179;SDS011;78;48.788;9.010;2023-01-29T15:10:43;42.93;;;18.43;;
179;SDS011;78;48.788;9.010;2023-01-29T15:13:17;39.53;;;16.43;;
179;SDS011;78;48.788;9.010;2023-01-29T15:16:01;39.33;;;16.10;;
179;SDS011;78;48.788;9.010;2023-01-29T15:18:33;39.20;;;16.20;;
179;SDS011;78;48.788;9.010;2023-01-29T15:21:15;39.70;;;16.80;;
179;SDS011;78;48.788;9.010;2023-01-29T15:23:41;40.37;;;17.43;;
179;SDS011;78;48.788;9.010;2023-01-29T15:26:12;49.07;;;18.57;;
179;SDS011;78;48.788;9.010;2023-01-29T15:28:43;45.67;;;19.37;;
179;SDS011;78;48.788;9.010;2023-01-29T15:31:13;41.47;;;16.50;;
179;SDS011;78;48.788;9.010;2023-01-29T15:33:41;44.60;;;18.13;;
179;SDS011;78;48.788;9.010;2023-01-29T15:36:15;44.07;;;18.70;;
179;SDS011;78;48.788;9.010;2023-01-29T15:38:43;41.77;;;15.40;;
179;SDS011;78;48.788;9.010;2023-01-29T15:41:19;37.87;;;15.80;;
179;SDS011;78;48.788;9.010;2023-01-29T15:43:46;41.90;;;18.50;;
179;SDS011;78;48.788;9.010;2023-01-29T15:48:39;44.33;;;18.43;;
179;SDS011;78;48.788;9.010;2023-01-29T15:51:07;43.93;;;16.77;;
179;SDS011;78;48.788;9.010;2023-01-29T15:53:35;38.57;;;16.00;;
179;SDS011;78;48.788;9.010;2023-01-29T15:56:05;38.53;;;15.50;;
179;SDS011;78;48.788;9.010;2023-01-29T15:58:32;39.00;;;15.63;;
179;SDS011;78;48.788;9.010;2023-01-29T16:00:58;36.20;;;14.47;;
179;SDS011;78;48.788;9.010;2023-01-29T16:03:26;39.90;;;16.57;;
179;SDS011;78;48.788;9.010;2023-01-29T16:05:53;41.90;;;15.73;;
179;SDS011;78;48.788;9.010;2023-01-29T16:08:19;36.90;;;15.30;;
179;SDS011;78;48.788;9.010;2023-01-29T16:10:48;38.50;;;15.50;;
179;SDS011;78;48.788;9.010;2023-01-29T16:13:19;36.40;;;14.90;;
179;SDS011;78;48.788;9.010;2023-01-29T16:16:05;39.50;;;14.93;;
179;SDS011;78;48.788;9.010;2023-01-29T16:18:37;38.23;;;14.83;;
179;SDS011;78;48.788;9.010;2023-01-29T16:23:39;36.97;;;14.73;;
179;SDS011;78;48.788;9.010;2023-01-29T16:26:06;38.93;;;14.80;;
179;SDS011;78;48.788;9.010;2023-01-29T16:28:33;49.07;;;19.70;;
179;SDS011;78;48.788;9.010;2023-01-29T16:31:04;104.90;;;36.27;;
179;SDS011;78;48.788;9.010;2023-01-29T16:33:39;175.73;;;51.00;;
179;SDS011;78;48.788;9.010;2023-01-29T16:36:14;106.13;;;33.93;;
179;SDS011;78;48.788;9.010;2023-01-29T16:38:41;80.97;;;29.27;;
179;SDS011;78;48.788;9.010;2023-01-29T16:41:15;79.10;;;28.43;;
179;SDS011;78;48.788;9.010;2023-01-29T16:43:44;96.03;;;38.47;;
179;SDS011;78;48.788;9.010;2023-01-29T16:48:39;71.00;;;28.50;;
179;SDS011;78;48.788;9.010;2023-01-29T16:51:11;65.73;;;25.07;;
179;SDS011;78;48.788;9.010;2023-01-29T16:53:38;48.70;;;19.87;;
179;SDS011;78;48.788;9.010;2023-01-29T16:56:06;51.70;;;21.23;;
179;SDS011;78;48.788;9.010;2023-01-29T16:58:32;55.93;;;22.60;;
179;SDS011;78;48.788;9.010;2023-01-29T17:01:08;48.03;;;19.90;;
179;SDS011;78;48.788;9.010;2023-01-29T17:03:34;43.83;;;16.47;;
179;SDS011;78;48.788;9.010;2023-01-29T17:06:11;40.17;;;15.73;;
179;SDS011;78;48.788;9.010;2023-01-29T17:08:39;39.60;;;14.87;;
179;SDS011;78;48.788;9.010;2023-01-29T17:11:06;39.90;;;14.37;;
179;SDS011;78;48.788;9.010;2023-01-29T17:13:36;37.57;;;14.73;;
179;SDS011;78;48.788;9.010;2023-01-29T17:16:21;38.40;;;14.47;;
179;SDS011;78;48.788;9.010;2023-01-29T17:18:50;39.10;;;14.80;;
179;SDS011;78;48.788;9.010;2023-01-29T17:21:16;45.27;;;14.93;;
179;SDS011;78;48.788;9.010;2023-01-29T17:23:42;38.90;;;14.30;;
179;SDS011;78;48.788;9.010;2023-01-29T17:26:08;36.47;;;13.57;;
179;SDS011;78;48.788;9.010;2023-01-29T17:28:35;37.33;;;14.10;;
179;SDS011;78;48.788;9.010;2023-01-29T17:31:01;41.30;;;15.43;;
179;SDS011;78;48.788;9.010;2023-01-29T17:33:27;37.30;;;14.30;;
179;SDS011;78;48.788;9.010;2023-01-29T17:35:53;40.63;;;14.77;;
179;SDS011;78;48.788;9.010;2023-01-29T17:38:20;37.47;;;14.47;;
179;SDS011;78;48.788;9.010;2023-01-29T17:40:52;38.77;;;14.27;;
179;SDS011;78;48.788;9.010;2023-01-29T17:43:19;36.83;;;13.77;;
179;SDS011;78;48.788;9.010;2023-01-29T17:45:45;38.67;;;14.60;;
179;SDS011;78;48.788;9.010;2023-01-29T17:48:17;39.77;;;15.37;;
179;SDS011;78;48.788;9.010;2023-01-29T17:50:43;42.20;;;15.70;;
179;SDS011;78;48.788;9.010;2023-01-29T17:53:12;40.33;;;15.40;;
179;SDS011;78;48.788;9.010;2023-01-29T17:55:38;43.80;;;17.20;;
179;SDS011;78;48.788;9.010;2023-01-29T17:58:04;42.63;;;16.63;;
179;SDS011;78;48.788;9.010;2023-01-29T18:00:30;41.37;;;15.70;;
179;SDS011;78;48.788;9.010;2023-01-29T18:02:56;41.10;;;16.07;;
179;SDS011;78;48.788;9.010;2023-01-29T18:05:26;42.33;;;16.00;;
179;SDS011;78;48.788;9.010;2023-01-29T18:07:53;39.43;;;15.30;;
179;SDS011;78;48.788;9.010;2023-01-29T18:10:20;42.80;;;16.50;;
179;SDS011;78;48.788;9.010;2023-01-29T18:12:47;41.57;;;16.10;;
179;SDS011;78;48.788;9.010;2023-01-29T18:15:13;45.93;;;17.10;;
179;SDS011;78;48.788;9.010;2023-01-29T18:17:39;49.40;;;17.20;;
179;SDS011;78;48.788;9.010;2023-01-29T18:20:11;40.67;;;15.83;;